createdAt,value
2023-03-22T00:01:23.494Z,65.40
2023-03-22T00:03:52.751Z,65.50
2023-03-22T00:06:20.097Z,65.40
2023-03-22T00:08:51.587Z,65.60
2023-03-22T00:11:21.212Z,65.70
2023-03-22T00:13:48.492Z,65.70
2023-03-22T00:16:15.804Z,65.80
2023-03-22T00:18:43.026Z,65.90
2023-03-22T00:21:16.304Z,66.00
2023-03-22T00:23:45.133Z,66.20
2023-03-22T00:26:13.558Z,66.00
2023-03-22T00:28:41.663Z,66.10
2023-03-22T00:31:09.414Z,66.10
2023-03-22T00:33:37.301Z,66.10
2023-03-22T00:36:08.874Z,66.20
2023-03-22T00:38:43.665Z,66.30
2023-03-22T00:41:21.408Z,66.20
2023-03-22T00:43:50.417Z,66.40
2023-03-22T00:46:20.988Z,66.50
2023-03-22T00:48:48.909Z,66.50
2023-03-22T00:51:16.411Z,66.40
2023-03-22T00:53:44.125Z,66.40
2023-03-22T00:56:16.348Z,66.50
2023-03-22T00:58:44.160Z,66.60
2023-03-22T01:01:14.752Z,66.60
2023-03-22T01:03:44.711Z,66.70
2023-03-22T01:06:12.052Z,66.60
2023-03-22T01:08:39.531Z,66.50
2023-03-22T01:11:08.370Z,66.50
2023-03-22T01:13:39.573Z,66.50
2023-03-22T01:16:08.003Z,66.50
2023-03-22T01:18:36.620Z,66.50
2023-03-22T01:21:04.357Z,66.50
2023-03-22T01:23:31.937Z,66.40
2023-03-22T01:25:59.330Z,66.40
2023-03-22T01:28:27.321Z,66.40
2023-03-22T01:30:55.994Z,66.30
2023-03-22T01:33:23.273Z,66.40
2023-03-22T01:35:50.589Z,66.40
2023-03-22T01:38:17.788Z,66.30
2023-03-22T01:40:44.873Z,66.30
2023-03-22T01:43:17.406Z,66.50
2023-03-22T01:45:49.152Z,66.70
2023-03-22T01:48:28.667Z,66.60
2023-03-22T01:51:10.910Z,66.60
2023-03-22T01:53:52.619Z,66.50
2023-03-22T01:56:28.016Z,66.50
2023-03-22T01:58:56.676Z,66.70
2023-03-22T02:01:24.515Z,66.60
2023-03-22T02:04:07.374Z,66.50
2023-03-22T02:09:13.750Z,66.70
2023-03-22T02:11:46.722Z,66.80
2023-03-22T02:14:42.948Z,66.80
2023-03-22T02:17:15.864Z,66.80
2023-03-22T02:20:10.982Z,66.80
2023-03-22T02:23:14.440Z,68.00
2023-03-22T02:26:41.630Z,67.70
2023-03-22T02:29:22.409Z,68.30
2023-03-22T02:32:41.274Z,67.20
2023-03-22T02:35:21.537Z,68.10
2023-03-22T02:38:26.108Z,67.20
2023-03-22T02:41:14.289Z,67.80
2023-03-22T02:44:22.350Z,67.20
2023-03-22T02:47:20.609Z,68.00
2023-03-22T02:50:09.430Z,67.60
2023-03-22T02:52:50.311Z,67.70
2023-03-22T02:55:38.301Z,67.70
2023-03-22T02:58:30.918Z,68.10
2023-03-22T03:01:05.935Z,68.50
2023-03-22T03:03:37.747Z,67.60
2023-03-22T03:06:08.541Z,67.50
2023-03-22T03:08:38.423Z,68.10
2023-03-22T03:11:06.097Z,67.20
2023-03-22T03:13:33.331Z,67.40
2023-03-22T03:16:02.904Z,67.40
2023-03-22T03:18:40.811Z,67.50
2023-03-22T03:21:35.575Z,67.70
2023-03-22T03:24:29.505Z,67.60
2023-03-22T03:27:08.452Z,68.00
2023-03-22T03:30:11.410Z,67.40
2023-03-22T03:32:52.727Z,67.50
2023-03-22T03:35:29.801Z,67.30
2023-03-22T03:38:12.898Z,67.60
2023-03-22T03:40:46.045Z,67.70
2023-03-22T03:43:14.458Z,67.80
2023-03-22T03:45:42.246Z,67.80
2023-03-22T03:48:22.691Z,67.90
2023-03-22T03:50:53.055Z,68.00
2023-03-22T03:53:20.274Z,68.10
2023-03-22T03:55:47.414Z,68.10
2023-03-22T03:58:16.784Z,68.20
2023-03-22T04:00:46.521Z,68.20
2023-03-22T04:03:14.500Z,68.20
2023-03-22T04:05:41.836Z,68.30
2023-03-22T04:08:09.835Z,68.30
2023-03-22T04:10:37.137Z,68.40
2023-03-22T04:13:04.294Z,68.40
2023-03-22T04:15:31.491Z,68.40
2023-03-22T04:17:59.174Z,68.40
2023-03-22T04:20:27.296Z,68.50
2023-03-22T04:22:54.377Z,68.40
2023-03-22T04:25:22.961Z,68.40
2023-03-22T04:27:51.485Z,68.30
2023-03-22T04:30:22.970Z,68.20
2023-03-22T04:32:50.596Z,68.20
2023-03-22T04:35:18.432Z,68.20
2023-03-22T04:37:45.825Z,68.20
2023-03-22T04:40:16.172Z,68.20
2023-03-22T04:42:44.851Z,68.20
2023-03-22T04:45:13.701Z,68.10
2023-03-22T04:47:41.003Z,68.10
2023-03-22T04:50:09.532Z,68.10
2023-03-22T04:52:36.689Z,68.10
2023-03-22T04:55:04.309Z,68.20
2023-03-22T04:57:31.473Z,68.20
2023-03-22T04:59:58.596Z,68.20
2023-03-22T05:02:25.798Z,68.20
2023-03-22T05:04:52.914Z,68.20
2023-03-22T05:07:19.992Z,68.10
2023-03-22T05:09:47.329Z,68.00
2023-03-22T05:12:14.525Z,68.00
2023-03-22T05:14:41.787Z,68.00
2023-03-22T05:17:09.026Z,68.20
2023-03-22T05:19:36.541Z,68.20
2023-03-22T05:22:03.545Z,68.30
2023-03-22T05:24:31.793Z,68.30
2023-03-22T05:27:01.138Z,68.30
2023-03-22T05:29:28.824Z,68.30
2023-03-22T05:31:55.979Z,68.30
2023-03-22T05:34:23.121Z,68.40
2023-03-22T05:36:51.673Z,68.50
2023-03-22T05:39:19.128Z,68.50
2023-03-22T05:41:46.723Z,68.50
2023-03-22T05:44:13.974Z,68.50
2023-03-22T05:46:41.207Z,68.70
2023-03-22T05:49:09.638Z,68.80
2023-03-22T05:51:41.927Z,68.90
2023-03-22T05:54:09.749Z,69.10
2023-03-22T05:56:36.998Z,69.30
2023-03-22T05:59:04.971Z,69.40
2023-03-22T06:01:33.662Z,69.60
2023-03-22T06:04:01.588Z,69.70
2023-03-22T06:06:28.758Z,69.80
2023-03-22T06:09:04.272Z,69.90
2023-03-22T06:11:41.721Z,69.90
2023-03-22T06:14:08.973Z,70.00
2023-03-22T06:16:36.374Z,70.10
2023-03-22T06:19:03.538Z,70.30
2023-03-22T06:21:30.675Z,70.50
2023-03-22T06:23:58.014Z,70.60
2023-03-22T06:26:25.386Z,70.60
2023-03-22T06:28:52.462Z,70.70
2023-03-22T06:31:19.792Z,70.80
2023-03-22T06:33:47.034Z,70.80
2023-03-22T06:36:14.303Z,70.70
2023-03-22T06:38:41.372Z,70.50
2023-03-22T06:41:08.509Z,70.50
2023-03-22T06:43:35.616Z,70.50
2023-03-22T06:46:02.750Z,70.50
2023-03-22T06:48:30.236Z,70.50
2023-03-22T06:50:57.326Z,70.30
2023-03-22T06:53:24.356Z,70.20
2023-03-22T06:55:55.219Z,70.20
2023-03-22T06:58:22.686Z,70.10
2023-03-22T07:00:49.916Z,70.00
2023-03-22T07:03:17.000Z,69.90
2023-03-22T07:05:44.290Z,69.80
2023-03-22T07:08:12.182Z,69.70
2023-03-22T07:10:39.605Z,69.60
2023-03-22T07:13:06.851Z,69.50
2023-03-22T07:15:34.588Z,69.50
2023-03-22T07:18:02.668Z,69.60
2023-03-22T07:20:29.808Z,69.40
2023-03-22T07:22:57.473Z,69.40
2023-03-22T07:25:24.655Z,69.40
2023-03-22T07:27:51.856Z,69.50
2023-03-22T07:30:19.061Z,69.50
2023-03-22T07:32:46.293Z,69.20
2023-03-22T07:35:13.393Z,69.00
2023-03-22T07:37:40.777Z,69.00
2023-03-22T07:40:08.910Z,68.90
2023-03-22T07:42:36.090Z,68.80
2023-03-22T07:45:03.959Z,68.60
2023-03-22T07:47:40.468Z,68.50
2023-03-22T07:50:09.918Z,68.30
2023-03-22T07:52:37.225Z,68.10
2023-03-22T07:55:05.206Z,67.90
2023-03-22T07:57:32.427Z,67.80
2023-03-22T07:59:59.822Z,67.70
2023-03-22T08:02:27.109Z,67.60
2023-03-22T08:04:56.644Z,67.60
2023-03-22T08:07:27.513Z,67.50
2023-03-22T08:09:54.618Z,67.30
2023-03-22T08:12:21.774Z,67.10
2023-03-22T08:14:51.232Z,67.00
2023-03-22T08:17:19.280Z,66.80
2023-03-22T08:19:46.598Z,66.80
2023-03-22T08:22:13.881Z,66.60
2023-03-22T08:24:41.020Z,66.60
2023-03-22T08:27:08.412Z,66.20
2023-03-22T08:29:35.828Z,65.60
2023-03-22T08:32:04.022Z,65.40
2023-03-22T08:34:33.431Z,65.10
2023-03-22T08:37:00.654Z,65.20
2023-03-22T08:39:28.253Z,65.20
2023-03-22T08:41:56.407Z,65.30
2023-03-22T08:44:23.489Z,65.20
2023-03-22T08:46:50.889Z,65.20
2023-03-22T08:49:18.249Z,64.90
2023-03-22T08:51:45.765Z,65.00
2023-03-22T08:54:13.664Z,64.80
2023-03-22T08:56:41.915Z,64.60
2023-03-22T08:59:10.273Z,64.50
2023-03-22T09:01:37.762Z,64.10
2023-03-22T09:04:06.816Z,64.10
2023-03-22T09:06:35.181Z,64.00
2023-03-22T09:09:02.336Z,63.80
2023-03-22T09:11:29.596Z,63.40
2023-03-22T09:13:56.757Z,63.20
2023-03-22T09:16:24.139Z,63.30
2023-03-22T09:18:51.315Z,63.10
2023-03-22T09:21:18.569Z,62.90
2023-03-22T09:23:47.988Z,62.50
2023-03-22T09:26:15.287Z,62.40
2023-03-22T09:28:42.597Z,61.90
2023-03-22T09:31:11.022Z,62.00
2023-03-22T09:33:41.408Z,61.60
2023-03-22T09:36:12.156Z,60.90
2023-03-22T09:38:41.442Z,60.80
2023-03-22T09:41:54.304Z,60.80
2023-03-22T09:44:31.710Z,59.60
2023-03-22T09:47:01.118Z,60.60
2023-03-22T09:49:52.592Z,60.70
2023-03-22T09:52:20.627Z,59.90
2023-03-22T09:54:48.002Z,60.20
2023-03-22T09:57:32.886Z,60.00
2023-03-22T10:00:47.918Z,59.20
2023-03-22T10:03:34.003Z,58.20
2023-03-22T10:06:22.495Z,58.90
2023-03-22T10:09:03.621Z,56.40
2023-03-22T10:11:49.814Z,59.00
2023-03-22T10:14:35.353Z,58.00
2023-03-22T10:17:10.383Z,57.00
2023-03-22T10:20:06.481Z,58.40
2023-03-22T10:22:42.235Z,56.50
2023-03-22T10:25:17.169Z,57.70
2023-03-22T10:27:47.062Z,58.10
2023-03-22T10:30:26.036Z,58.10
2023-03-22T10:33:03.419Z,57.40
2023-03-22T10:35:32.824Z,56.70
2023-03-22T10:38:04.354Z,57.40
2023-03-22T10:40:36.680Z,57.40
2023-03-22T10:43:20.879Z,56.90
2023-03-22T10:45:49.077Z,56.80
2023-03-22T10:48:29.281Z,57.50
2023-03-22T10:50:58.856Z,56.40
2023-03-22T10:53:46.046Z,57.00
2023-03-22T10:56:16.572Z,57.00
2023-03-22T10:58:43.974Z,57.20
2023-03-22T11:01:14.991Z,57.30
2023-03-22T11:03:51.382Z,57.10
2023-03-22T11:06:25.128Z,57.00
2023-03-22T11:08:58.466Z,56.60
2023-03-22T11:11:38.023Z,56.30
2023-03-22T11:14:23.472Z,56.00
2023-03-22T11:17:06.733Z,55.70
2023-03-22T11:19:42.172Z,54.40
2023-03-22T11:22:33.602Z,55.10
2023-03-22T11:25:01.895Z,54.00
2023-03-22T11:27:33.525Z,55.10
2023-03-22T11:30:28.960Z,54.50
2023-03-22T11:33:18.131Z,54.80
2023-03-22T11:35:53.519Z,54.60
2023-03-22T11:38:48.841Z,54.80
2023-03-22T11:41:29.124Z,52.90
2023-03-22T11:44:01.970Z,53.90
2023-03-22T11:46:30.874Z,54.90
2023-03-22T11:49:02.649Z,54.70
2023-03-22T11:51:35.108Z,54.30
2023-03-22T11:54:13.669Z,54.40
2023-03-22T11:56:46.302Z,53.20
2023-03-22T11:59:37.408Z,53.30
2023-03-22T12:02:32.584Z,52.40
2023-03-22T12:05:19.355Z,52.40
2023-03-22T12:07:50.623Z,52.20
2023-03-22T12:10:27.234Z,53.50
2023-03-22T12:13:07.548Z,53.00
2023-03-22T12:15:48.747Z,52.80
2023-03-22T12:18:24.715Z,53.10
2023-03-22T12:21:02.197Z,53.40
2023-03-22T12:23:37.613Z,52.50
2023-03-22T12:26:18.064Z,53.30
2023-03-22T12:29:17.034Z,52.90
2023-03-22T12:32:02.082Z,50.80
2023-03-22T12:34:50.909Z,51.20
2023-03-22T12:37:25.732Z,51.70
2023-03-22T12:40:23.040Z,52.80
2023-03-22T12:43:33.921Z,51.20
2023-03-22T12:46:05.032Z,50.70
2023-03-22T12:48:52.408Z,51.70
2023-03-22T12:51:19.793Z,51.70
2023-03-22T12:53:53.587Z,51.70
2023-03-22T12:56:39.224Z,51.70
2023-03-22T12:59:15.916Z,50.50
2023-03-22T13:02:00.911Z,51.40
2023-03-22T13:04:36.842Z,49.40
2023-03-22T13:07:30.733Z,50.90
2023-03-22T13:10:00.466Z,49.00
2023-03-22T13:12:34.552Z,50.90
2023-03-22T13:15:13.686Z,50.60
2023-03-22T13:17:45.701Z,51.10
2023-03-22T13:20:15.156Z,51.60
2023-03-22T13:22:48.259Z,50.90
2023-03-22T13:25:19.541Z,51.00
2023-03-22T13:27:53.939Z,50.70
2023-03-22T13:30:25.321Z,50.90
2023-03-22T13:33:10.810Z,50.10
2023-03-22T13:35:52.727Z,50.10
2023-03-22T13:38:30.505Z,49.10
2023-03-22T13:41:24.934Z,49.60
2023-03-22T13:43:56.404Z,49.00
2023-03-22T13:46:23.834Z,49.80
2023-03-22T13:49:00.330Z,50.10
2023-03-22T13:51:31.888Z,49.70
2023-03-22T13:54:14.165Z,50.00
2023-03-22T13:56:43.918Z,49.50
2023-03-22T14:00:09.553Z,49.20
2023-03-22T14:02:42.566Z,48.00
2023-03-22T14:05:22.471Z,49.40
2023-03-22T14:07:58.512Z,48.40
2023-03-22T14:10:45.415Z,48.20
2023-03-22T14:13:46.595Z,48.80
2023-03-22T14:16:22.610Z,48.10
2023-03-22T14:18:50.515Z,49.30
2023-03-22T14:21:24.138Z,49.80
